sensor_id;sensor_type;location;lat;lon;timestamp;P1;durP1;ratioP1;P2;durP2;ratioP2
40917;SDS011;26644;50.248;19.032;2022-10-31T00:02:36;43.47;;;22.15;;
40917;SDS011;26644;50.248;19.032;2022-10-31T00:05:41;49.28;;;23.20;;
40917;SDS011;26644;50.248;19.032;2022-10-31T00:08:44;42.92;;;22.05;;
40917;SDS011;26644;50.248;19.032;2022-10-31T00:11:46;50.53;;;24.42;;
40917;SDS011;26644;50.248;19.032;2022-10-31T00:14:48;46.38;;;23.13;;
40917;SDS011;26644;50.248;19.032;2022-10-31T00:17:50;46.65;;;23.67;;
40917;SDS011;26644;50.248;19.032;2022-10-31T00:20:59;44.67;;;22.38;;
40917;SDS011;26644;50.248;19.032;2022-10-31T00:24:01;40.03;;;21.83;;
40917;SDS011;26644;50.248;19.032;2022-10-31T00:27:03;47.60;;;21.83;;
40917;SDS011;26644;50.248;19.032;2022-10-31T00:30:05;42.38;;;21.15;;
40917;SDS011;26644;50.248;19.032;2022-10-31T00:33:08;43.42;;;22.42;;
40917;SDS011;26644;50.248;19.032;2022-10-31T00:36:13;39.78;;;22.38;;
40917;SDS011;26644;50.248;19.032;2022-10-31T00:39:16;43.75;;;22.27;;
40917;SDS011;26644;50.248;19.032;2022-10-31T00:42:18;42.15;;;22.80;;
40917;SDS011;26644;50.248;19.032;2022-10-31T00:45:20;44.67;;;22.00;;
40917;SDS011;26644;50.248;19.032;2022-10-31T00:48:22;43.33;;;23.52;;
40917;SDS011;26644;50.248;19.032;2022-10-31T00:51:25;45.08;;;21.85;;
40917;SDS011;26644;50.248;19.032;2022-10-31T00:54:27;41.42;;;22.70;;
40917;SDS011;26644;50.248;19.032;2022-10-31T00:57:29;41.22;;;21.85;;
40917;SDS011;26644;50.248;19.032;2022-10-31T01:00:31;48.30;;;21.50;;
40917;SDS011;26644;50.248;19.032;2022-10-31T01:03:32;37.38;;;20.35;;
40917;SDS011;26644;50.248;19.032;2022-10-31T01:06:36;48.35;;;22.95;;
40917;SDS011;26644;50.248;19.032;2022-10-31T01:09:38;43.20;;;23.83;;
40917;SDS011;26644;50.248;19.032;2022-10-31T01:12:40;46.85;;;24.48;;
40917;SDS011;26644;50.248;19.032;2022-10-31T01:15:43;53.50;;;24.40;;
40917;SDS011;26644;50.248;19.032;2022-10-31T01:18:45;45.55;;;24.58;;
40917;SDS011;26644;50.248;19.032;2022-10-31T01:21:49;46.67;;;24.40;;
40917;SDS011;26644;50.248;19.032;2022-10-31T01:24:51;50.58;;;24.17;;
40917;SDS011;26644;50.248;19.032;2022-10-31T01:27:53;48.38;;;24.63;;
40917;SDS011;26644;50.248;19.032;2022-10-31T01:30:55;55.65;;;24.08;;
40917;SDS011;26644;50.248;19.032;2022-10-31T01:33:57;45.80;;;22.90;;
40917;SDS011;26644;50.248;19.032;2022-10-31T01:37:00;46.33;;;22.02;;
40917;SDS011;26644;50.248;19.032;2022-10-31T01:40:02;42.45;;;20.45;;
40917;SDS011;26644;50.248;19.032;2022-10-31T01:43:04;36.45;;;19.25;;
40917;SDS011;26644;50.248;19.032;2022-10-31T01:46:06;36.05;;;20.13;;
40917;SDS011;26644;50.248;19.032;2022-10-31T01:49:09;46.10;;;22.83;;
40917;SDS011;26644;50.248;19.032;2022-10-31T01:52:16;50.35;;;22.45;;
40917;SDS011;26644;50.248;19.032;2022-10-31T01:55:23;36.13;;;19.05;;
40917;SDS011;26644;50.248;19.032;2022-10-31T01:58:28;42.47;;;22.25;;
40917;SDS011;26644;50.248;19.032;2022-10-31T02:01:32;44.83;;;22.83;;
40917;SDS011;26644;50.248;19.032;2022-10-31T02:04:34;43.80;;;21.55;;
40917;SDS011;26644;50.248;19.032;2022-10-31T02:07:39;48.45;;;22.38;;
40917;SDS011;26644;50.248;19.032;2022-10-31T02:10:46;42.63;;;22.67;;
40917;SDS011;26644;50.248;19.032;2022-10-31T02:13:49;44.35;;;22.65;;
40917;SDS011;26644;50.248;19.032;2022-10-31T02:16:50;45.90;;;23.23;;
40917;SDS011;26644;50.248;19.032;2022-10-31T02:19:54;51.97;;;24.65;;
40917;SDS011;26644;50.248;19.032;2022-10-31T02:23:14;50.72;;;24.92;;
40917;SDS011;26644;50.248;19.032;2022-10-31T02:26:43;50.40;;;24.10;;
40917;SDS011;26644;50.248;19.032;2022-10-31T02:30:10;54.95;;;24.77;;
40917;SDS011;26644;50.248;19.032;2022-10-31T02:33:20;44.95;;;21.80;;
40917;SDS011;26644;50.248;19.032;2022-10-31T02:36:28;44.35;;;24.15;;
40917;SDS011;26644;50.248;19.032;2022-10-31T02:39:38;43.40;;;23.27;;
40917;SDS011;26644;50.248;19.032;2022-10-31T02:42:51;43.28;;;22.73;;
40917;SDS011;26644;50.248;19.032;2022-10-31T02:46:02;48.33;;;23.13;;
40917;SDS011;26644;50.248;19.032;2022-10-31T02:49:11;49.75;;;25.23;;
40917;SDS011;26644;50.248;19.032;2022-10-31T02:52:24;54.42;;;26.23;;
40917;SDS011;26644;50.248;19.032;2022-10-31T02:55:42;51.38;;;25.10;;
40917;SDS011;26644;50.248;19.032;2022-10-31T02:58:49;50.03;;;25.83;;
40917;SDS011;26644;50.248;19.032;2022-10-31T03:01:56;51.97;;;25.10;;
40917;SDS011;26644;50.248;19.032;2022-10-31T03:05:31;48.80;;;24.70;;
40917;SDS011;26644;50.248;19.032;2022-10-31T03:08:43;50.30;;;23.08;;
40917;SDS011;26644;50.248;19.032;2022-10-31T03:11:56;46.35;;;23.20;;
40917;SDS011;26644;50.248;19.032;2022-10-31T03:15:01;45.75;;;21.80;;
40917;SDS011;26644;50.248;19.032;2022-10-31T03:18:15;47.38;;;22.48;;
40917;SDS011;26644;50.248;19.032;2022-10-31T03:21:25;43.78;;;22.52;;
40917;SDS011;26644;50.248;19.032;2022-10-31T03:24:34;51.13;;;23.10;;
40917;SDS011;26644;50.248;19.032;2022-10-31T03:27:38;44.85;;;21.40;;
40917;SDS011;26644;50.248;19.032;2022-10-31T03:30:43;42.85;;;20.40;;
40917;SDS011;26644;50.248;19.032;2022-10-31T03:33:47;39.85;;;20.17;;
40917;SDS011;26644;50.248;19.032;2022-10-31T03:36:53;47.88;;;21.02;;
40917;SDS011;26644;50.248;19.032;2022-10-31T03:39:57;45.30;;;22.02;;
40917;SDS011;26644;50.248;19.032;2022-10-31T03:43:03;47.22;;;21.40;;
40917;SDS011;26644;50.248;19.032;2022-10-31T03:46:09;42.67;;;22.65;;
40917;SDS011;26644;50.248;19.032;2022-10-31T03:49:11;48.38;;;21.67;;
40917;SDS011;26644;50.248;19.032;2022-10-31T03:52:18;42.92;;;21.75;;
40917;SDS011;26644;50.248;19.032;2022-10-31T03:55:24;48.40;;;22.00;;
40917;SDS011;26644;50.248;19.032;2022-10-31T03:58:32;45.90;;;21.80;;
40917;SDS011;26644;50.248;19.032;2022-10-31T04:01:41;48.75;;;21.05;;
40917;SDS011;26644;50.248;19.032;2022-10-31T04:04:47;42.85;;;19.33;;
40917;SDS011;26644;50.248;19.032;2022-10-31T04:07:53;37.45;;;19.17;;
40917;SDS011;26644;50.248;19.032;2022-10-31T04:10:57;40.53;;;20.10;;
40917;SDS011;26644;50.248;19.032;2022-10-31T04:14:02;39.38;;;19.30;;
40917;SDS011;26644;50.248;19.032;2022-10-31T04:17:11;36.38;;;19.75;;
40917;SDS011;26644;50.248;19.032;2022-10-31T04:20:17;46.22;;;20.33;;
40917;SDS011;26644;50.248;19.032;2022-10-31T04:23:22;44.53;;;22.05;;
40917;SDS011;26644;50.248;19.032;2022-10-31T04:26:27;48.45;;;21.85;;
40917;SDS011;26644;50.248;19.032;2022-10-31T04:29:28;42.90;;;21.83;;
40917;SDS011;26644;50.248;19.032;2022-10-31T04:32:31;50.35;;;22.27;;
40917;SDS011;26644;50.248;19.032;2022-10-31T04:35:33;43.20;;;19.55;;
40917;SDS011;26644;50.248;19.032;2022-10-31T04:38:36;42.85;;;23.27;;
40917;SDS011;26644;50.248;19.032;2022-10-31T04:41:46;40.13;;;20.65;;
40917;SDS011;26644;50.248;19.032;2022-10-31T04:44:49;43.45;;;20.52;;
40917;SDS011;26644;50.248;19.032;2022-10-31T04:47:51;41.30;;;20.05;;
40917;SDS011;26644;50.248;19.032;2022-10-31T04:50:52;45.83;;;20.80;;
40917;SDS011;26644;50.248;19.032;2022-10-31T04:54:01;47.78;;;21.25;;
40917;SDS011;26644;50.248;19.032;2022-10-31T04:57:41;41.13;;;20.08;;
40917;SDS011;26644;50.248;19.032;2022-10-31T05:00:44;46.85;;;20.45;;
40917;SDS011;26644;50.248;19.032;2022-10-31T05:03:46;39.00;;;20.45;;
40917;SDS011;26644;50.248;19.032;2022-10-31T05:06:48;42.75;;;21.35;;
40917;SDS011;26644;50.248;19.032;2022-10-31T05:09:51;45.22;;;22.95;;
40917;SDS011;26644;50.248;19.032;2022-10-31T05:12:54;50.72;;;23.33;;
40917;SDS011;26644;50.248;19.032;2022-10-31T05:16:16;50.72;;;22.65;;
40917;SDS011;26644;50.248;19.032;2022-10-31T05:19:44;52.03;;;22.50;;
40917;SDS011;26644;50.248;19.032;2022-10-31T05:23:18;48.47;;;21.83;;
40917;SDS011;26644;50.248;19.032;2022-10-31T05:26:22;52.17;;;24.65;;
40917;SDS011;26644;50.248;19.032;2022-10-31T05:29:25;45.58;;;21.95;;
40917;SDS011;26644;50.248;19.032;2022-10-31T05:32:26;46.88;;;20.95;;
40917;SDS011;26644;50.248;19.032;2022-10-31T05:35:52;45.83;;;22.90;;
40917;SDS011;26644;50.248;19.032;2022-10-31T05:38:57;49.55;;;21.50;;
40917;SDS011;26644;50.248;19.032;2022-10-31T05:42:05;45.47;;;22.65;;
40917;SDS011;26644;50.248;19.032;2022-10-31T05:45:07;42.65;;;22.27;;
40917;SDS011;26644;50.248;19.032;2022-10-31T05:48:33;44.17;;;23.00;;
40917;SDS011;26644;50.248;19.032;2022-10-31T05:51:58;48.83;;;23.83;;
40917;SDS011;26644;50.248;19.032;2022-10-31T05:55:09;50.58;;;22.52;;
40917;SDS011;26644;50.248;19.032;2022-10-31T05:58:16;49.70;;;23.92;;
40917;SDS011;26644;50.248;19.032;2022-10-31T06:01:24;54.85;;;24.77;;
40917;SDS011;26644;50.248;19.032;2022-10-31T06:04:26;49.28;;;24.90;;
40917;SDS011;26644;50.248;19.032;2022-10-31T06:07:31;53.58;;;24.23;;
40917;SDS011;26644;50.248;19.032;2022-10-31T06:10:33;57.92;;;22.55;;
40917;SDS011;26644;50.248;19.032;2022-10-31T06:13:37;53.47;;;25.38;;
40917;SDS011;26644;50.248;19.032;2022-10-31T06:16:48;64.20;;;29.08;;
40917;SDS011;26644;50.248;19.032;2022-10-31T06:20:16;68.25;;;30.27;;
40917;SDS011;26644;50.248;19.032;2022-10-31T06:23:28;72.70;;;31.30;;
40917;SDS011;26644;50.248;19.032;2022-10-31T06:26:50;56.60;;;25.38;;
40917;SDS011;26644;50.248;19.032;2022-10-31T06:29:53;59.13;;;27.90;;
40917;SDS011;26644;50.248;19.032;2022-10-31T06:33:05;51.28;;;24.73;;
40917;SDS011;26644;50.248;19.032;2022-10-31T06:36:11;47.13;;;23.15;;
40917;SDS011;26644;50.248;19.032;2022-10-31T06:39:13;46.97;;;22.80;;
40917;SDS011;26644;50.248;19.032;2022-10-31T06:42:15;47.78;;;22.98;;
40917;SDS011;26644;50.248;19.032;2022-10-31T06:45:19;46.90;;;22.40;;
40917;SDS011;26644;50.248;19.032;2022-10-31T06:48:50;46.38;;;22.67;;
40917;SDS011;26644;50.248;19.032;2022-10-31T06:51:54;47.10;;;21.75;;
40917;SDS011;26644;50.248;19.032;2022-10-31T06:54:56;46.35;;;23.17;;
40917;SDS011;26644;50.248;19.032;2022-10-31T06:57:59;50.58;;;23.40;;
40917;SDS011;26644;50.248;19.032;2022-10-31T07:01:03;43.83;;;22.02;;
40917;SDS011;26644;50.248;19.032;2022-10-31T07:04:05;48.00;;;21.80;;
40917;SDS011;26644;50.248;19.032;2022-10-31T07:07:09;57.85;;;23.15;;
40917;SDS011;26644;50.248;19.032;2022-10-31T07:10:12;47.30;;;22.38;;
40917;SDS011;26644;50.248;19.032;2022-10-31T07:13:23;48.08;;;21.50;;
40917;SDS011;26644;50.248;19.032;2022-10-31T07:16:32;57.72;;;23.13;;
40917;SDS011;26644;50.248;19.032;2022-10-31T07:19:37;43.47;;;20.90;;
40917;SDS011;26644;50.248;19.032;2022-10-31T07:22:39;49.03;;;22.08;;
40917;SDS011;26644;50.248;19.032;2022-10-31T07:25:42;42.03;;;20.52;;
40917;SDS011;26644;50.248;19.032;2022-10-31T07:28:52;36.47;;;19.67;;
40917;SDS011;26644;50.248;19.032;2022-10-31T07:31:58;40.40;;;19.38;;
40917;SDS011;26644;50.248;19.032;2022-10-31T07:35:03;37.70;;;20.48;;
40917;SDS011;26644;50.248;19.032;2022-10-31T07:38:19;37.95;;;19.50;;
40917;SDS011;26644;50.248;19.032;2022-10-31T07:41:21;54.78;;;27.08;;
40917;SDS011;26644;50.248;19.032;2022-10-31T07:44:23;38.85;;;20.80;;
40917;SDS011;26644;50.248;19.032;2022-10-31T07:47:47;34.15;;;18.55;;
40917;SDS011;26644;50.248;19.032;2022-10-31T07:51:08;35.47;;;18.38;;
40917;SDS011;26644;50.248;19.032;2022-10-31T07:54:13;37.58;;;18.50;;
40917;SDS011;26644;50.248;19.032;2022-10-31T07:57:16;28.20;;;16.42;;
40917;SDS011;26644;50.248;19.032;2022-10-31T08:00:18;35.17;;;17.75;;
40917;SDS011;26644;50.248;19.032;2022-10-31T08:03:25;18.92;;;12.20;;
40917;SDS011;26644;50.248;19.032;2022-10-31T08:06:26;0.00;;;0.00;;
40917;SDS011;26644;50.248;19.032;2022-10-31T08:09:48;0.00;;;0.00;;
40917;SDS011;26644;50.248;19.032;2022-10-31T08:12:58;0.00;;;0.00;;
40917;SDS011;26644;50.248;19.032;2022-10-31T08:16:02;0.00;;;0.00;;
40917;SDS011;26644;50.248;19.032;2022-10-31T08:19:08;23.73;;;12.23;;
40917;SDS011;26644;50.248;19.032;2022-10-31T08:22:13;18.60;;;9.98;;
40917;SDS011;26644;50.248;19.032;2022-10-31T08:25:15;4.13;;;3.80;;
40917;SDS011;26644;50.248;19.032;2022-10-31T08:28:17;8.48;;;6.88;;
40917;SDS011;26644;50.248;19.032;2022-10-31T08:31:21;13.68;;;7.57;;
40917;SDS011;26644;50.248;19.032;2022-10-31T08:34:25;11.82;;;6.57;;
40917;SDS011;26644;50.248;19.032;2022-10-31T08:37:45;3.03;;;2.75;;
40917;SDS011;26644;50.248;19.032;2022-10-31T08:40:53;4.57;;;4.18;;
40917;SDS011;26644;50.248;19.032;2022-10-31T08:43:55;18.75;;;11.50;;
40917;SDS011;26644;50.248;19.032;2022-10-31T08:46:57;19.98;;;12.18;;
40917;SDS011;26644;50.248;19.032;2022-10-31T08:50:00;22.90;;;10.70;;
40917;SDS011;26644;50.248;19.032;2022-10-31T08:53:03;26.08;;;12.00;;
40917;SDS011;26644;50.248;19.032;2022-10-31T08:56:07;18.25;;;10.40;;
40917;SDS011;26644;50.248;19.032;2022-10-31T08:59:10;31.25;;;10.93;;
40917;SDS011;26644;50.248;19.032;2022-10-31T09:02:35;22.35;;;11.52;;
40917;SDS011;26644;50.248;19.032;2022-10-31T09:05:38;17.42;;;10.10;;
40917;SDS011;26644;50.248;19.032;2022-10-31T09:08:45;16.65;;;9.57;;
40917;SDS011;26644;50.248;19.032;2022-10-31T09:11:46;29.67;;;11.00;;
40917;SDS011;26644;50.248;19.032;2022-10-31T09:14:51;14.73;;;9.55;;
40917;SDS011;26644;50.248;19.032;2022-10-31T09:17:59;21.35;;;10.07;;
40917;SDS011;26644;50.248;19.032;2022-10-31T09:21:23;17.35;;;9.45;;
40917;SDS011;26644;50.248;19.032;2022-10-31T09:24:25;16.00;;;8.70;;
40917;SDS011;26644;50.248;19.032;2022-10-31T09:27:27;18.58;;;10.38;;
40917;SDS011;26644;50.248;19.032;2022-10-31T09:30:32;17.45;;;8.98;;
40917;SDS011;26644;50.248;19.032;2022-10-31T09:33:36;19.63;;;9.07;;
40917;SDS011;26644;50.248;19.032;2022-10-31T09:36:59;13.95;;;8.00;;
40917;SDS011;26644;50.248;19.032;2022-10-31T09:40:01;18.15;;;9.15;;
40917;SDS011;26644;50.248;19.032;2022-10-31T09:43:17;17.40;;;9.15;;
40917;SDS011;26644;50.248;19.032;2022-10-31T09:46:26;18.90;;;9.35;;
40917;SDS011;26644;50.248;19.032;2022-10-31T09:49:36;17.48;;;9.02;;
40917;SDS011;26644;50.248;19.032;2022-10-31T09:52:53;19.10;;;9.60;;
40917;SDS011;26644;50.248;19.032;2022-10-31T09:56:08;19.77;;;8.75;;
40917;SDS011;26644;50.248;19.032;2022-10-31T09:59:24;24.23;;;9.52;;
40917;SDS011;26644;50.248;19.032;2022-10-31T10:02:31;19.92;;;9.60;;
40917;SDS011;26644;50.248;19.032;2022-10-31T10:05:39;19.30;;;9.55;;
40917;SDS011;26644;50.248;19.032;2022-10-31T10:08:56;26.35;;;10.70;;
40917;SDS011;26644;50.248;19.032;2022-10-31T10:12:23;20.55;;;10.10;;
40917;SDS011;26644;50.248;19.032;2022-10-31T10:15:51;19.40;;;8.70;;
40917;SDS011;26644;50.248;19.032;2022-10-31T10:19:09;24.80;;;10.05;;
40917;SDS011;26644;50.248;19.032;2022-10-31T10:22:23;24.73;;;9.18;;
40917;SDS011;26644;50.248;19.032;2022-10-31T10:25:34;17.92;;;9.23;;
40917;SDS011;26644;50.248;19.032;2022-10-31T10:28:41;18.77;;;8.52;;
40917;SDS011;26644;50.248;19.032;2022-10-31T10:31:46;18.60;;;8.45;;
40917;SDS011;26644;50.248;19.032;2022-10-31T10:34:53;21.65;;;8.35;;
40917;SDS011;26644;50.248;19.032;2022-10-31T10:38:00;20.27;;;8.65;;
40917;SDS011;26644;50.248;19.032;2022-10-31T10:41:10;20.17;;;8.55;;
40917;SDS011;26644;50.248;19.032;2022-10-31T10:44:20;21.83;;;8.65;;
40917;SDS011;26644;50.248;19.032;2022-10-31T10:47:22;21.45;;;8.13;;
40917;SDS011;26644;50.248;19.032;2022-10-31T10:50:39;20.65;;;7.43;;
40917;SDS011;26644;50.248;19.032;2022-10-31T10:53:47;14.07;;;6.82;;
40917;SDS011;26644;50.248;19.032;2022-10-31T10:57:06;17.20;;;7.43;;
40917;SDS011;26644;50.248;19.032;2022-10-31T11:00:19;18.38;;;7.55;;
40917;SDS011;26644;50.248;19.032;2022-10-31T11:03:22;14.73;;;7.10;;
40917;SDS011;26644;50.248;19.032;2022-10-31T11:06:24;17.33;;;7.35;;
40917;SDS011;26644;50.248;19.032;2022-10-31T11:09:26;16.73;;;7.07;;
40917;SDS011;26644;50.248;19.032;2022-10-31T11:12:31;19.02;;;7.85;;
40917;SDS011;26644;50.248;19.032;2022-10-31T11:15:35;16.10;;;7.00;;
40917;SDS011;26644;50.248;19.032;2022-10-31T11:18:39;20.40;;;7.68;;
40917;SDS011;26644;50.248;19.032;2022-10-31T11:21:44;16.58;;;6.40;;
40917;SDS011;26644;50.248;19.032;2022-10-31T11:24:46;18.85;;;6.90;;
40917;SDS011;26644;50.248;19.032;2022-10-31T11:27:59;16.42;;;7.43;;
40917;SDS011;26644;50.248;19.032;2022-10-31T11:31:05;18.65;;;6.97;;
40917;SDS011;26644;50.248;19.032;2022-10-31T11:34:12;17.92;;;6.97;;
40917;SDS011;26644;50.248;19.032;2022-10-31T11:40:23;17.00;;;7.65;;
40917;SDS011;26644;50.248;19.032;2022-10-31T11:43:28;19.95;;;6.93;;
40917;SDS011;26644;50.248;19.032;2022-10-31T11:46:32;20.83;;;7.65;;
40917;SDS011;26644;50.248;19.032;2022-10-31T11:49:39;18.13;;;6.78;;
40917;SDS011;26644;50.248;19.032;2022-10-31T11:52:43;21.45;;;8.20;;
40917;SDS011;26644;50.248;19.032;2022-10-31T11:55:45;16.77;;;7.15;;
40917;SDS011;26644;50.248;19.032;2022-10-31T11:58:55;15.65;;;6.90;;
40917;SDS011;26644;50.248;19.032;2022-10-31T12:01:59;17.88;;;7.05;;
40917;SDS011;26644;50.248;19.032;2022-10-31T12:05:07;17.35;;;7.30;;
40917;SDS011;26644;50.248;19.032;2022-10-31T12:08:18;21.15;;;7.47;;
40917;SDS011;26644;50.248;19.032;2022-10-31T12:11:32;14.13;;;7.47;;
40917;SDS011;26644;50.248;19.032;2022-10-31T12:14:49;19.10;;;7.55;;
40917;SDS011;26644;50.248;19.032;2022-10-31T12:21:42;23.27;;;8.70;;
40917;SDS011;26644;50.248;19.032;2022-10-31T12:32:03;19.85;;;7.28;;
40917;SDS011;26644;50.248;19.032;2022-10-31T12:38:54;17.55;;;8.20;;
40917;SDS011;26644;50.248;19.032;2022-10-31T12:42:09;19.23;;;7.47;;
40917;SDS011;26644;50.248;19.032;2022-10-31T12:45:28;6.88;;;6.30;;
40917;SDS011;26644;50.248;19.032;2022-10-31T12:48:46;0.00;;;0.00;;
40917;SDS011;26644;50.248;19.032;2022-10-31T12:52:03;0.00;;;0.00;;
40917;SDS011;26644;50.248;19.032;2022-10-31T12:55:24;26.25;;;8.68;;
40917;SDS011;26644;50.248;19.032;2022-10-31T12:58:38;19.88;;;7.75;;
40917;SDS011;26644;50.248;19.032;2022-10-31T13:01:47;19.08;;;7.68;;
40917;SDS011;26644;50.248;19.032;2022-10-31T13:04:56;17.25;;;8.48;;
40917;SDS011;26644;50.248;19.032;2022-10-31T13:08:04;16.92;;;7.65;;
40917;SDS011;26644;50.248;19.032;2022-10-31T13:11:08;17.70;;;8.05;;
40917;SDS011;26644;50.248;19.032;2022-10-31T13:14:23;17.65;;;8.85;;
40917;SDS011;26644;50.248;19.032;2022-10-31T13:17:29;19.58;;;8.73;;
40917;SDS011;26644;50.248;19.032;2022-10-31T13:20:40;22.02;;;10.20;;
40917;SDS011;26644;50.248;19.032;2022-10-31T13:23:44;17.85;;;8.60;;
40917;SDS011;26644;50.248;19.032;2022-10-31T13:26:50;21.02;;;8.73;;
40917;SDS011;26644;50.248;19.032;2022-10-31T13:29:58;20.15;;;8.93;;
40917;SDS011;26644;50.248;19.032;2022-10-31T13:33:04;15.70;;;7.80;;
40917;SDS011;26644;50.248;19.032;2022-10-31T13:36:18;18.67;;;9.65;;
40917;SDS011;26644;50.248;19.032;2022-10-31T13:39:30;21.23;;;9.25;;
40917;SDS011;26644;50.248;19.032;2022-10-31T13:42:46;15.80;;;8.50;;
40917;SDS011;26644;50.248;19.032;2022-10-31T13:45:55;26.33;;;10.10;;
40917;SDS011;26644;50.248;19.032;2022-10-31T13:48:57;18.98;;;9.32;;
40917;SDS011;26644;50.248;19.032;2022-10-31T13:52:06;20.48;;;9.57;;
40917;SDS011;26644;50.248;19.032;2022-10-31T13:58:57;19.23;;;8.88;;
40917;SDS011;26644;50.248;19.032;2022-10-31T14:02:02;26.10;;;10.18;;
40917;SDS011;26644;50.248;19.032;2022-10-31T14:05:19;73.38;;;37.58;;
40917;SDS011;26644;50.248;19.032;2022-10-31T14:08:26;20.25;;;9.50;;
40917;SDS011;26644;50.248;19.032;2022-10-31T14:11:30;28.02;;;9.50;;
40917;SDS011;26644;50.248;19.032;2022-10-31T14:14:34;24.25;;;10.77;;
40917;SDS011;26644;50.248;19.032;2022-10-31T14:17:45;21.40;;;10.25;;
40917;SDS011;26644;50.248;19.032;2022-10-31T14:20:49;28.20;;;11.02;;
40917;SDS011;26644;50.248;19.032;2022-10-31T14:23:52;18.35;;;9.63;;
40917;SDS011;26644;50.248;19.032;2022-10-31T14:26:54;24.02;;;11.00;;
40917;SDS011;26644;50.248;19.032;2022-10-31T14:30:07;25.55;;;10.95;;
40917;SDS011;26644;50.248;19.032;2022-10-31T14:33:16;23.83;;;10.75;;
40917;SDS011;26644;50.248;19.032;2022-10-31T14:36:21;24.75;;;11.75;;
40917;SDS011;26644;50.248;19.032;2022-10-31T14:39:32;23.27;;;10.43;;
40917;SDS011;26644;50.248;19.032;2022-10-31T14:42:45;24.05;;;11.13;;
40917;SDS011;26644;50.248;19.032;2022-10-31T14:45:59;26.77;;;10.95;;
40917;SDS011;26644;50.248;19.032;2022-10-31T14:49:07;28.25;;;13.00;;
40917;SDS011;26644;50.248;19.032;2022-10-31T14:52:34;23.52;;;11.07;;
40917;SDS011;26644;50.248;19.032;2022-10-31T14:55:40;26.63;;;11.70;;
40917;SDS011;26644;50.248;19.032;2022-10-31T14:58:46;29.98;;;12.63;;
40917;SDS011;26644;50.248;19.032;2022-10-31T15:01:52;28.63;;;13.15;;
40917;SDS011;26644;50.248;19.032;2022-10-31T15:04:57;24.02;;;10.90;;
40917;SDS011;26644;50.248;19.032;2022-10-31T15:08:01;20.65;;;10.27;;
40917;SDS011;26644;50.248;19.032;2022-10-31T15:11:08;23.92;;;10.68;;
40917;SDS011;26644;50.248;19.032;2022-10-31T15:14:17;26.13;;;10.98;;
40917;SDS011;26644;50.248;19.032;2022-10-31T15:17:24;23.63;;;11.52;;
40917;SDS011;26644;50.248;19.032;2022-10-31T15:20:28;28.65;;;14.05;;
40917;SDS011;26644;50.248;19.032;2022-10-31T15:23:32;29.55;;;12.63;;
40917;SDS011;26644;50.248;19.032;2022-10-31T15:26:37;29.90;;;12.85;;
40917;SDS011;26644;50.248;19.032;2022-10-31T15:29:51;27.55;;;12.48;;
40917;SDS011;26644;50.248;19.032;2022-10-31T15:32:54;24.92;;;12.13;;
40917;SDS011;26644;50.248;19.032;2022-10-31T15:35:57;31.80;;;13.82;;
40917;SDS011;26644;50.248;19.032;2022-10-31T15:39:00;33.55;;;15.50;;
40917;SDS011;26644;50.248;19.032;2022-10-31T15:42:03;37.78;;;16.13;;
40917;SDS011;26644;50.248;19.032;2022-10-31T15:45:15;42.00;;;17.75;;
40917;SDS011;26644;50.248;19.032;2022-10-31T15:48:21;47.45;;;18.35;;
40917;SDS011;26644;50.248;19.032;2022-10-31T15:51:25;44.63;;;18.08;;
40917;SDS011;26644;50.248;19.032;2022-10-31T15:54:29;51.28;;;18.38;;
40917;SDS011;26644;50.248;19.032;2022-10-31T15:57:32;52.17;;;18.55;;
40917;SDS011;26644;50.248;19.032;2022-10-31T16:00:35;48.03;;;18.33;;
40917;SDS011;26644;50.248;19.032;2022-10-31T16:03:40;42.65;;;19.20;;
40917;SDS011;26644;50.248;19.032;2022-10-31T16:06:42;37.15;;;18.08;;
40917;SDS011;26644;50.248;19.032;2022-10-31T16:09:51;38.85;;;16.83;;
40917;SDS011;26644;50.248;19.032;2022-10-31T16:12:56;42.92;;;17.92;;
40917;SDS011;26644;50.248;19.032;2022-10-31T16:15:58;49.03;;;20.15;;
40917;SDS011;26644;50.248;19.032;2022-10-31T16:19:02;65.25;;;23.63;;
40917;SDS011;26644;50.248;19.032;2022-10-31T16:22:08;56.55;;;23.30;;
40917;SDS011;26644;50.248;19.032;2022-10-31T16:25:13;59.47;;;22.92;;
40917;SDS011;26644;50.248;19.032;2022-10-31T16:28:20;56.35;;;22.85;;
40917;SDS011;26644;50.248;19.032;2022-10-31T16:31:28;54.30;;;24.42;;
40917;SDS011;26644;50.248;19.032;2022-10-31T16:34:32;51.08;;;21.90;;
40917;SDS011;26644;50.248;19.032;2022-10-31T16:37:34;57.00;;;23.58;;
40917;SDS011;26644;50.248;19.032;2022-10-31T16:40:38;47.25;;;23.00;;
40917;SDS011;26644;50.248;19.032;2022-10-31T16:43:42;60.08;;;23.45;;
40917;SDS011;26644;50.248;19.032;2022-10-31T16:46:44;64.25;;;24.33;;
40917;SDS011;26644;50.248;19.032;2022-10-31T16:49:47;66.20;;;26.67;;
40917;SDS011;26644;50.248;19.032;2022-10-31T16:52:50;64.88;;;26.88;;
40917;SDS011;26644;50.248;19.032;2022-10-31T16:55:54;64.35;;;26.63;;
40917;SDS011;26644;50.248;19.032;2022-10-31T16:58:59;68.05;;;28.50;;
40917;SDS011;26644;50.248;19.032;2022-10-31T17:02:04;62.42;;;28.17;;
40917;SDS011;26644;50.248;19.032;2022-10-31T17:05:08;70.45;;;27.60;;
40917;SDS011;26644;50.248;19.032;2022-10-31T17:08:12;72.82;;;27.95;;
40917;SDS011;26644;50.248;19.032;2022-10-31T17:11:16;63.53;;;27.48;;
40917;SDS011;26644;50.248;19.032;2022-10-31T17:14:23;57.47;;;28.05;;
40917;SDS011;26644;50.248;19.032;2022-10-31T17:17:25;67.70;;;26.60;;
40917;SDS011;26644;50.248;19.032;2022-10-31T17:20:28;51.30;;;25.17;;
40917;SDS011;26644;50.248;19.032;2022-10-31T17:23:30;50.72;;;22.40;;
40917;SDS011;26644;50.248;19.032;2022-10-31T17:26:33;49.67;;;23.13;;
40917;SDS011;26644;50.248;19.032;2022-10-31T17:29:36;52.72;;;23.25;;
40917;SDS011;26644;50.248;19.032;2022-10-31T17:32:38;47.25;;;23.55;;
40917;SDS011;26644;50.248;19.032;2022-10-31T17:35:40;54.13;;;23.88;;
40917;SDS011;26644;50.248;19.032;2022-10-31T17:38:43;54.80;;;21.35;;
40917;SDS011;26644;50.248;19.032;2022-10-31T17:41:46;50.90;;;22.48;;
40917;SDS011;26644;50.248;19.032;2022-10-31T17:44:52;47.13;;;21.35;;
40917;SDS011;26644;50.248;19.032;2022-10-31T17:47:54;46.60;;;20.33;;
40917;SDS011;26644;50.248;19.032;2022-10-31T17:50:58;47.42;;;20.50;;
40917;SDS011;26644;50.248;19.032;2022-10-31T17:54:01;37.88;;;18.05;;
40917;SDS011;26644;50.248;19.032;2022-10-31T17:57:03;43.40;;;19.40;;
40917;SDS011;26644;50.248;19.032;2022-10-31T18:00:07;38.17;;;17.23;;
40917;SDS011;26644;50.248;19.032;2022-10-31T18:03:11;33.50;;;15.38;;
40917;SDS011;26644;50.248;19.032;2022-10-31T18:06:13;37.83;;;16.48;;
40917;SDS011;26644;50.248;19.032;2022-10-31T18:09:16;37.97;;;17.33;;
40917;SDS011;26644;50.248;19.032;2022-10-31T18:12:18;33.97;;;17.65;;
40917;SDS011;26644;50.248;19.032;2022-10-31T18:15:21;40.28;;;18.23;;
40917;SDS011;26644;50.248;19.032;2022-10-31T18:18:23;36.03;;;16.58;;
40917;SDS011;26644;50.248;19.032;2022-10-31T18:21:25;41.63;;;19.42;;
40917;SDS011;26644;50.248;19.032;2022-10-31T18:24:27;51.78;;;21.45;;
40917;SDS011;26644;50.248;19.032;2022-10-31T18:27:29;49.33;;;22.17;;